Time;durP1;ratioP1;P1;durP2;ratioP2;P2;SDS_P1;SDS_P2;PMS_P1;PMS_P2;Temp;Humidity;BMP_temperature;BMP_pressure;BME280_temperature;BME280_humidity;BME280_pressure;Samples;Min_cycle;Max_cycle;Signal;HPM_P1;HPM_P2
2023/12/28 00:00:16;;;;;;;;;;;15.90;68.50;;;;;;7328007;19;9229;-61
2023/12/28 00:02:45;;;;;;;;;;;15.90;68.40;;;;;;7328001;19;9312;-60
2023/12/28 00:05:14;;;;;;;;;;;15.90;68.30;;;;;;7328460;19;9455;-61
2023/12/28 00:07:43;;;;;;;;;;;15.80;68.30;;;;;;7325453;19;9194;-60
2023/12/28 00:10:15;;;;;;;;;;;15.80;68.30;;;;;;7327586;19;9413;-61
2023/12/28 00:12:47;;;;;;;;;;;15.80;68.30;;;;;;7328161;19;10108;-61
2023/12/28 00:15:16;;;;;;;;;;;15.80;68.30;;;;;;7327520;19;9408;-60
2023/12/28 00:17:45;;;;;;;;;;;15.80;68.30;;;;;;7327787;19;9467;-61
2023/12/28 00:20:15;;;;;;;;;;;15.80;68.40;;;;;;7327269;19;9278;-60
2023/12/28 00:22:44;;;;;;;;;;;15.80;68.50;;;;;;7327830;19;9170;-60
2023/12/28 00:25:13;;;;;;;;;;;15.70;68.50;;;;;;7326110;19;9309;-60
2023/12/28 00:27:42;;;;;;;;;;;15.70;68.60;;;;;;7327687;19;9304;-60
2023/12/28 00:30:16;;;;;;;;;;;15.70;68.60;;;;;;7326847;19;9657;-60
2023/12/28 00:32:45;;;;;;;;;;;15.60;68.70;;;;;;7327398;19;9386;-60
2023/12/28 00:35:14;;;;;;;;;;;15.60;68.80;;;;;;7326984;19;9445;-61
2023/12/28 00:37:44;;;;;;;;;;;15.60;68.80;;;;;;7327048;19;9275;-60
2023/12/28 00:40:14;;;;;;;;;;;15.50;68.80;;;;;;7327233;19;9656;-60
2023/12/28 00:42:43;;;;;;;;;;;15.50;68.90;;;;;;7327185;19;9291;-60
2023/12/28 00:45:14;;;;;;;;;;;15.50;69.00;;;;;;7327077;19;9393;-60
2023/12/28 00:47:44;;;;;;;;;;;15.40;69.00;;;;;;7325112;19;9238;-60
2023/12/28 00:50:14;;;;;;;;;;;15.50;69.10;;;;;;7327258;19;9425;-60
2023/12/28 00:52:43;;;;;;;;;;;15.40;69.10;;;;;;7326624;19;9292;-60
2023/12/28 00:55:13;;;;;;;;;;;15.40;69.20;;;;;;7326206;19;9470;-61
2023/12/28 00:57:42;;;;;;;;;;;15.40;69.30;;;;;;7326154;19;9457;-60
2023/12/28 01:00:15;;;;;;;;;;;15.30;69.30;;;;;;7325839;19;9754;-60
2023/12/28 01:02:46;;;;;;;;;;;15.30;69.30;;;;;;7325989;19;9516;-60
2023/12/28 01:05:16;;;;;;;;;;;15.30;69.40;;;;;;7326948;19;9262;-60
2023/12/28 01:07:45;;;;;;;;;;;15.30;69.40;;;;;;7325686;19;9577;-60
2023/12/28 01:10:14;;;;;;;;;;;15.20;69.40;;;;;;7326019;19;9230;-60
2023/12/28 01:12:43;;;;;;;;;;;15.20;69.50;;;;;;7326570;19;9286;-60
2023/12/28 01:15:17;;;;;;;;;;;15.20;69.50;;;;;;7326182;19;9731;-60
2023/12/28 01:17:46;;;;;;;;;;;15.20;69.60;;;;;;7325421;19;10056;-63
2023/12/28 01:20:16;;;;;;;;;;;15.10;69.50;;;;;;7324922;19;9240;-60
2023/12/28 01:22:45;;;;;;;;;;;15.10;69.60;;;;;;7325433;19;9510;-60
2023/12/28 01:25:14;;;;;;;;;;;15.10;69.70;;;;;;7325389;19;9227;-60
2023/12/28 01:27:43;;;;;;;;;;;15.10;69.70;;;;;;7326075;19;9259;-60
2023/12/28 01:30:34;;;;;;;;;;;15.10;69.80;;;;;;7324001;19;10252;-60
2023/12/28 01:33:03;;;;;;;;;;;15.00;69.70;;;;;;7326031;19;11041;-60
2023/12/28 01:35:32;;;;;;;;;;;15.00;69.90;;;;;;7325214;19;9224;-60
2023/12/28 01:38:03;;;;;;;;;;;15.00;69.80;;;;;;7325702;19;9248;-60
2023/12/28 01:40:32;;;;;;;;;;;15.00;69.80;;;;;;7326150;19;9414;-60
2023/12/28 01:43:01;;;;;;;;;;;15.00;69.90;;;;;;7325417;19;9312;-60
2023/12/28 01:45:30;;;;;;;;;;;15.00;70.00;;;;;;7325638;19;9476;-60
2023/12/28 01:48:02;;;;;;;;;;;15.00;70.00;;;;;;7324607;19;9461;-60
2023/12/28 01:50:35;;;;;;;;;;;15.00;70.10;;;;;;7325109;19;9431;-60
2023/12/28 01:53:24;;;;;;;;;;;15.00;70.10;;;;;;7322934;19;9594;-60
2023/12/28 01:55:55;;;;;;;;;;;15.00;70.00;;;;;;7324918;19;9464;-60
2023/12/28 01:58:24;;;;;;;;;;;15.10;70.00;;;;;;7324926;19;9387;-59
2023/12/28 02:00:54;;;;;;;;;;;15.20;69.90;;;;;;7324570;19;9529;-59
2023/12/28 02:03:45;;;;;;;;;;;15.20;69.70;;;;;;7323526;19;10181;-60
2023/12/28 02:06:19;;;;;;;;;;;15.30;69.50;;;;;;7324756;19;10134;-60
2023/12/28 02:08:48;;;;;;;;;;;15.40;69.50;;;;;;7324995;19;10744;-59
2023/12/28 02:11:17;;;;;;;;;;;15.40;69.40;;;;;;7325337;19;9393;-60
2023/12/28 02:13:47;;;;;;;;;;;15.50;69.20;;;;;;7325004;19;9461;-59
2023/12/28 02:16:23;;;;;;;;;;;15.50;69.10;;;;;;7321402;19;9390;-60
2023/12/28 02:19:27;;;;;;;;;;;15.60;69.10;;;;;;7323569;19;9503;-60
2023/12/28 02:21:58;;;;;;;;;;;15.70;69.10;;;;;;7323884;19;9297;-60
2023/12/28 02:24:27;;;;;;;;;;;15.70;69.00;;;;;;7323941;19;9445;-60
2023/12/28 02:26:58;;;;;;;;;;;15.80;68.90;;;;;;7324535;19;9552;-60
2023/12/28 02:29:27;;;;;;;;;;;15.80;68.90;;;;;;7322013;19;9469;-60
2023/12/28 02:32:06;;;;;;;;;;;15.80;68.80;;;;;;7323827;19;9463;-59
2023/12/28 02:34:42;;;;;;;;;;;15.80;68.80;;;;;;7322985;19;9508;-60
2023/12/28 02:37:15;;;;;;;;;;;15.80;68.70;;;;;;7324224;19;9511;-60
2023/12/28 02:39:49;;;;;;;;;;;15.80;68.80;;;;;;7323263;19;9484;-59
2023/12/28 02:42:22;;;;;;;;;;;15.80;68.70;;;;;;7323983;19;9445;-60
2023/12/28 02:45:12;;;;;;;;;;;15.80;68.80;;;;;;7322240;19;9266;-60
2023/12/28 02:47:41;;;;;;;;;;;15.80;68.90;;;;;;7322021;19;9469;-60
2023/12/28 02:50:11;;;;;;;;;;;15.80;68.90;;;;;;7322326;19;9508;-60
2023/12/28 02:52:40;;;;;;;;;;;15.70;68.90;;;;;;7323415;19;9229;-60
2023/12/28 02:55:10;;;;;;;;;;;15.70;69.00;;;;;;7322729;19;9470;-60
2023/12/28 02:57:41;;;;;;;;;;;15.70;69.00;;;;;;7322954;19;9317;-60
2023/12/28 03:00:11;;;;;;;;;;;15.60;69.00;;;;;;7322430;19;9515;-60
2023/12/28 03:02:41;;;;;;;;;;;15.60;69.10;;;;;;7322875;19;9468;-60
2023/12/28 03:05:11;;;;;;;;;;;15.60;69.20;;;;;;7323380;19;9414;-60
2023/12/28 03:07:40;;;;;;;;;;;15.50;69.20;;;;;;7322817;19;9224;-60
2023/12/28 03:10:11;;;;;;;;;;;15.50;69.20;;;;;;7322971;19;9459;-61
2023/12/28 03:12:42;;;;;;;;;;;15.50;69.30;;;;;;7322304;19;9189;-60
2023/12/28 03:15:12;;;;;;;;;;;15.50;69.40;;;;;;7322897;19;9555;-60
2023/12/28 03:17:41;;;;;;;;;;;15.40;69.40;;;;;;7321835;19;10736;-60
2023/12/28 03:20:12;;;;;;;;;;;15.40;69.50;;;;;;7322940;19;9281;-59
2023/12/28 03:22:41;;;;;;;;;;;15.40;69.60;;;;;;7321648;19;9327;-60
2023/12/28 03:25:11;;;;;;;;;;;15.30;69.60;;;;;;7322360;19;9602;-60
2023/12/28 03:27:42;;;;;;;;;;;15.30;69.60;;;;;;7321391;19;10849;-60
2023/12/28 03:30:13;;;;;;;;;;;15.30;69.70;;;;;;7322242;19;9497;-60
2023/12/28 03:32:42;;;;;;;;;;;15.30;69.80;;;;;;7321042;19;9486;-59
2023/12/28 03:35:11;;;;;;;;;;;15.30;69.80;;;;;;7322107;19;9457;-60
2023/12/28 03:37:39;;;;;;;;;;;15.20;69.70;;;;;;7321550;19;9439;-60
2023/12/28 03:40:10;;;;;;;;;;;15.20;69.80;;;;;;7321670;19;9382;-59
2023/12/28 03:42:44;;;;;;;;;;;15.20;69.90;;;;;;7327047;19;9466;-60
2023/12/28 03:45:13;;;;;;;;;;;15.20;69.90;;;;;;7327991;19;10016;-60
2023/12/28 03:47:42;;;;;;;;;;;15.10;70.00;;;;;;7328662;19;11060;-60
2023/12/28 03:50:11;;;;;;;;;;;15.10;69.90;;;;;;7327892;19;10354;-60
2023/12/28 03:52:40;;;;;;;;;;;15.10;70.00;;;;;;7328594;19;9347;-60
2023/12/28 03:55:10;;;;;;;;;;;15.10;70.00;;;;;;7328124;19;9570;-60
2023/12/28 03:57:42;;;;;;;;;;;15.00;70.10;;;;;;7327637;19;9128;-60
2023/12/28 04:00:12;;;;;;;;;;;15.10;70.20;;;;;;7327735;19;9473;-60
2023/12/28 04:02:41;;;;;;;;;;;15.10;70.20;;;;;;7327900;19;9161;-61
2023/12/28 04:05:10;;;;;;;;;;;15.00;70.20;;;;;;7328014;19;9200;-60
2023/12/28 04:07:39;;;;;;;;;;;15.00;70.20;;;;;;7328192;19;9537;-61
2023/12/28 04:10:09;;;;;;;;;;;15.00;70.20;;;;;;7328022;19;9470;-60
2023/12/28 04:12:38;;;;;;;;;;;15.00;70.30;;;;;;7327580;19;9539;-60
2023/12/28 04:15:10;;;;;;;;;;;15.00;70.40;;;;;;7327602;19;10323;-60
2023/12/28 04:17:39;;;;;;;;;;;15.00;70.40;;;;;;7327915;19;9281;-60
2023/12/28 04:20:10;;;;;;;;;;;15.00;71.00;;;;;;7328461;19;9525;-60
2023/12/28 04:22:39;;;;;;;;;;;15.00;70.40;;;;;;7327045;19;9468;-60
2023/12/28 04:25:09;;;;;;;;;;;15.10;70.30;;;;;;7327496;19;10773;-60
2023/12/28 04:27:38;;;;;;;;;;;15.10;70.30;;;;;;7326509;19;9178;-60
2023/12/28 04:30:10;;;;;;;;;;;15.20;70.00;;;;;;7327323;19;9449;-60
2023/12/28 04:32:59;;;;;;;;;;;15.20;69.80;;;;;;7325616;19;9281;-60
2023/12/28 04:35:28;;;;;;;;;;;15.30;69.80;;;;;;7326827;19;9468;-60
2023/12/28 04:37:57;;;;;;;;;;;15.40;69.70;;;;;;7327453;19;10419;-60
2023/12/28 04:40:27;;;;;;;;;;;15.40;69.60;;;;;;7326788;19;10874;-60
2023/12/28 04:42:56;;;;;;;;;;;15.50;69.50;;;;;;7327516;19;9558;-60
2023/12/28 04:45:28;;;;;;;;;;;15.60;69.50;;;;;;7325794;19;9266;-60
2023/12/28 04:47:57;;;;;;;;;;;15.60;69.40;;;;;;7326865;19;9513;-60
2023/12/28 04:50:26;;;;;;;;;;;15.70;69.40;;;;;;7326145;19;9225;-60
2023/12/28 04:52:55;;;;;;;;;;;15.70;69.20;;;;;;7324892;19;9186;-60
2023/12/28 04:55:24;;;;;;;;;;;15.80;69.20;;;;;;7326445;19;9450;-60
2023/12/28 04:57:53;;;;;;;;;;;15.70;69.10;;;;;;7326420;19;9218;-60
2023/12/28 05:00:22;;;;;;;;;;;15.80;69.10;;;;;;7325878;19;9290;-60
2023/12/28 05:02:53;;;;;;;;;;;15.80;69.10;;;;;;7326779;19;9253;-60
2023/12/28 05:05:22;;;;;;;;;;;15.80;69.10;;;;;;7326576;19;10989;-60
2023/12/28 05:07:51;;;;;;;;;;;15.80;69.10;;;;;;7326199;19;9722;-60
2023/12/28 05:10:21;;;;;;;;;;;15.80;69.10;;;;;;7326651;19;9596;-60
2023/12/28 05:12:50;;;;;;;;;;;15.80;69.10;;;;;;7325474;19;9521;-60
2023/12/28 05:15:19;;;;;;;;;;;15.80;69.20;;;;;;7326162;19;9261;-60
2023/12/28 05:17:50;;;;;;;;;;;15.80;69.90;;;;;;7325094;19;9384;-60
2023/12/28 05:20:22;;;;;;;;;;;15.70;69.20;;;;;;7325830;19;9464;-60
2023/12/28 05:22:51;;;;;;;;;;;15.70;69.30;;;;;;7325397;19;9518;-60
2023/12/28 05:25:20;;;;;;;;;;;15.70;69.30;;;;;;7325502;19;9207;-60
2023/12/28 05:27:49;;;;;;;;;;;15.70;69.40;;;;;;7325392;19;9470;-60
2023/12/28 05:30:18;;;;;;;;;;;15.60;69.40;;;;;;7325983;19;9492;-60
2023/12/28 05:32:46;;;;;;;;;;;15.60;69.50;;;;;;7325807;19;9587;-60
2023/12/28 05:35:15;;;;;;;;;;;15.60;69.60;;;;;;7325817;19;9473;-60
2023/12/28 05:37:47;;;;;;;;;;;15.50;69.60;;;;;;7325601;19;9328;-60
2023/12/28 05:40:16;;;;;;;;;;;15.50;69.70;;;;;;7324907;19;9241;-60
2023/12/28 05:42:46;;;;;;;;;;;15.50;69.80;;;;;;7325571;19;9269;-60
2023/12/28 05:45:15;;;;;;;;;;;15.50;69.80;;;;;;7324506;19;9473;-60
2023/12/28 05:47:44;;;;;;;;;;;15.50;69.90;;;;;;7325114;19;9491;-60
2023/12/28 05:50:33;;;;;;;;;;;15.40;69.90;;;;;;7323336;19;9427;-60
2023/12/28 05:53:05;;;;;;;;;;;15.40;70.00;;;;;;7325009;19;9241;-60
2023/12/28 05:55:34;;;;;;;;;;;15.40;70.00;;;;;;7325281;19;9466;-60
2023/12/28 05:58:03;;;;;;;;;;;15.40;70.10;;;;;;7324607;19;9473;-60
2023/12/28 06:00:31;;;;;;;;;;;15.40;70.20;;;;;;7325790;19;9486;-60
2023/12/28 06:03:00;;;;;;;;;;;15.30;70.20;;;;;;7324420;19;9249;-60
2023/12/28 06:05:29;;;;;;;;;;;15.30;70.20;;;;;;7324769;19;10301;-60
2023/12/28 06:07:58;;;;;;;;;;;15.30;70.30;;;;;;7324796;19;9233;-60
2023/12/28 06:10:30;;;;;;;;;;;15.30;70.30;;;;;;7324363;19;10311;-60
2023/12/28 06:13:19;;;;;;;;;;;15.20;70.30;;;;;;7323030;19;9482;-60
2023/12/28 06:15:48;;;;;;;;;;;15.20;70.30;;;;;;7324523;19;9242;-60
2023/12/28 06:18:16;;;;;;;;;;;15.20;70.40;;;;;;7324345;19;9185;-60
2023/12/28 06:20:45;;;;;;;;;;;15.20;70.40;;;;;;7324394;19;10052;-60
2023/12/28 06:23:14;;;;;;;;;;;15.20;70.50;;;;;;7324599;19;9594;-60
2023/12/28 06:26:10;;;;;;;;;;;15.10;70.50;;;;;;7321837;19;9563;-60
2023/12/28 06:28:39;;;;;;;;;;;15.10;70.50;;;;;;7324668;19;9439;-60
2023/12/28 06:31:07;;;;;;;;;;;15.10;70.60;;;;;;7323706;19;9281;-60
2023/12/28 06:33:36;;;;;;;;;;;15.10;70.70;;;;;;7324280;19;9556;-60
2023/12/28 06:36:09;;;;;;;;;;;15.10;70.60;;;;;;7324851;19;9254;-60
2023/12/28 06:38:39;;;;;;;;;;;15.00;70.70;;;;;;7323890;19;9407;-60
2023/12/28 06:41:16;;;;;;;;;;;15.00;70.70;;;;;;7323767;19;9334;-60
2023/12/28 06:43:45;;;;;;;;;;;15.00;70.70;;;;;;7323352;19;9422;-60
2023/12/28 06:46:14;;;;;;;;;;;15.00;70.80;;;;;;7323645;19;9450;-60
2023/12/28 06:48:43;;;;;;;;;;;15.00;70.80;;;;;;7323220;19;9198;-60
2023/12/28 06:51:12;;;;;;;;;;;15.00;70.90;;;;;;7324047;19;9453;-60
2023/12/28 06:53:42;;;;;;;;;;;15.00;71.00;;;;;;7323338;19;9828;-60
2023/12/28 06:56:15;;;;;;;;;;;15.00;71.00;;;;;;7323545;19;9456;-61
2023/12/28 06:58:44;;;;;;;;;;;15.10;71.00;;;;;;7323150;19;9413;-60
2023/12/28 07:01:13;;;;;;;;;;;15.10;71.00;;;;;;7323190;19;10711;-60
2023/12/28 07:03:42;;;;;;;;;;;15.20;70.60;;;;;;7323051;19;9221;-60
2023/12/28 07:06:11;;;;;;;;;;;15.20;70.40;;;;;;7323190;19;9152;-60
2023/12/28 07:08:40;;;;;;;;;;;15.30;70.40;;;;;;7323365;19;9529;-61
2023/12/28 07:11:15;;;;;;;;;;;15.40;70.40;;;;;;7322071;19;9556;-60
2023/12/28 07:13:44;;;;;;;;;;;15.40;70.20;;;;;;7322864;19;9333;-60
2023/12/28 07:16:12;;;;;;;;;;;15.50;70.10;;;;;;7322905;19;10313;-60
2023/12/28 07:18:41;;;;;;;;;;;15.50;70.10;;;;;;7329917;19;9214;-60
2023/12/28 07:21:12;;;;;;;;;;;15.60;70.00;;;;;;7328745;19;9190;-60
2023/12/28 07:23:41;;;;;;;;;;;15.60;69.80;;;;;;7329030;19;10413;-60
2023/12/28 07:26:10;;;;;;;;;;;15.70;69.90;;;;;;7329134;19;9254;-61
2023/12/28 07:28:43;;;;;;;;;;;15.70;69.70;;;;;;7330085;19;9187;-61
2023/12/28 07:31:13;;;;;;;;;;;15.70;69.70;;;;;;7329051;19;9460;-59
2023/12/28 07:33:42;;;;;;;;;;;15.70;69.70;;;;;;7329288;19;9659;-59
2023/12/28 07:36:11;;;;;;;;;;;15.80;69.70;;;;;;7328872;19;9492;-61
2023/12/28 07:38:40;;;;;;;;;;;15.80;69.70;;;;;;7327957;19;10492;-60
2023/12/28 07:41:09;;;;;;;;;;;15.80;69.80;;;;;;7328481;19;9517;-60
2023/12/28 07:43:40;;;;;;;;;;;15.80;69.70;;;;;;7327626;19;9413;-61
2023/12/28 07:46:10;;;;;;;;;;;15.80;69.80;;;;;;7327918;19;9186;-60
2023/12/28 07:48:40;;;;;;;;;;;15.70;69.90;;;;;;7327715;19;9623;-60
2023/12/28 07:51:09;;;;;;;;;;;15.70;69.90;;;;;;7328773;19;9489;-60
2023/12/28 07:53:38;;;;;;;;;;;15.70;70.00;;;;;;7327451;19;9726;-60
2023/12/28 07:56:08;;;;;;;;;;;15.70;70.10;;;;;;7328075;19;10363;-61
2023/12/28 07:58:37;;;;;;;;;;;15.60;70.10;;;;;;7327324;19;9320;-60
2023/12/28 08:01:29;;;;;;;;;;;15.60;70.10;;;;;;7325919;19;9416;-61
2023/12/28 08:03:59;;;;;;;;;;;15.60;70.20;;;;;;7328437;19;9568;-61
2023/12/28 08:06:29;;;;;;;;;;;15.50;70.30;;;;;;7327022;19;9553;-60
2023/12/28 08:08:59;;;;;;;;;;;15.60;70.40;;;;;;7327443;19;9549;-61
2023/12/28 08:11:48;;;;;;;;;;;15.50;70.30;;;;;;7326307;19;9242;-61
2023/12/28 08:14:17;;;;;;;;;;;15.50;70.50;;;;;;7327814;19;9242;-60
2023/12/28 08:16:48;;;;;;;;;;;15.50;70.50;;;;;;7327083;19;10702;-60
2023/12/28 08:19:17;;;;;;;;;;;15.40;70.50;;;;;;7327199;19;9474;-61
2023/12/28 08:21:46;;;;;;;;;;;15.40;70.60;;;;;;7327606;19;10219;-60
2023/12/28 08:24:16;;;;;;;;;;;15.40;70.60;;;;;;7327463;19;9236;-60
2023/12/28 08:26:45;;;;;;;;;;;15.40;70.70;;;;;;7327896;19;10925;-60
2023/12/28 08:29:14;;;;;;;;;;;15.30;70.70;;;;;;7323968;19;9527;-60
2023/12/28 08:31:43;;;;;;;;;;;15.30;70.80;;;;;;7327255;19;9394;-60
2023/12/28 08:34:15;;;;;;;;;;;15.30;70.80;;;;;;7327030;19;9318;-60
2023/12/28 08:36:44;;;;;;;;;;;15.30;70.90;;;;;;7327184;19;9253;-61
2023/12/28 08:39:13;;;;;;;;;;;15.30;70.90;;;;;;7327316;19;9185;-60
2023/12/28 08:41:42;;;;;;;;;;;15.30;71.00;;;;;;7325841;19;9437;-61
2023/12/28 08:44:11;;;;;;;;;;;15.20;70.90;;;;;;7326327;19;9296;-62
2023/12/28 08:46:40;;;;;;;;;;;15.30;71.00;;;;;;7326035;19;10382;-61
2023/12/28 08:49:09;;;;;;;;;;;15.20;71.00;;;;;;7327052;19;10854;-60
2023/12/28 08:51:41;;;;;;;;;;;15.20;71.10;;;;;;7326256;19;10498;-60
2023/12/28 08:54:10;;;;;;;;;;;15.20;71.20;;;;;;7326755;19;9368;-61
2023/12/28 08:56:39;;;;;;;;;;;15.20;71.20;;;;;;7325733;19;9221;-60
2023/12/28 08:59:08;;;;;;;;;;;15.10;71.20;;;;;;7326338;19;10254;-60
2023/12/28 09:01:37;;;;;;;;;;;15.10;71.30;;;;;;7325417;19;9270;-60
2023/12/28 09:04:06;;;;;;;;;;;15.10;71.30;;;;;;7326142;19;9590;-61
2023/12/28 09:06:35;;;;;;;;;;;15.10;71.40;;;;;;7325378;19;9219;-60
2023/12/28 09:09:06;;;;;;;;;;;15.10;71.40;;;;;;7326716;19;9528;-61
2023/12/28 09:11:35;;;;;;;;;;;15.10;71.40;;;;;;7325721;19;9196;-61
2023/12/28 09:14:04;;;;;;;;;;;15.10;71.60;;;;;;7326403;19;9489;-60
2023/12/28 09:16:33;;;;;;;;;;;15.10;71.40;;;;;;7325520;19;11785;-61
2023/12/28 09:19:02;;;;;;;;;;;15.10;71.50;;;;;;7326045;19;9804;-60
2023/12/28 09:21:31;;;;;;;;;;;15.10;72.10;;;;;;7324871;19;9636;-61
2023/12/28 09:24:00;;;;;;;;;;;15.00;71.40;;;;;;7325540;19;9208;-60
2023/12/28 09:26:32;;;;;;;;;;;15.00;71.50;;;;;;7325580;19;9535;-60
2023/12/28 09:29:01;;;;;;;;;;;15.00;71.40;;;;;;7325023;19;10354;-61
2023/12/28 09:31:30;;;;;;;;;;;15.00;71.40;;;;;;7325814;19;9534;-60
2023/12/28 09:34:19;;;;;;;;;;;15.10;71.60;;;;;;7323581;19;9499;-60
2023/12/28 09:36:48;;;;;;;;;;;15.00;71.50;;;;;;7325940;19;9280;-60
2023/12/28 09:39:17;;;;;;;;;;;15.00;71.70;;;;;;7324027;19;9064;-60
2023/12/28 09:41:58;;;;;;;;;;;15.00;71.70;;;;;;7325971;19;10449;-60
2023/12/28 09:44:28;;;;;;;;;;;15.00;71.80;;;;;;7325642;19;10809;-61
2023/12/28 09:46:59;;;;;;;;;;;15.00;71.90;;;;;;7324273;19;9325;-61
2023/12/28 09:49:28;;;;;;;;;;;15.10;71.80;;;;;;7325009;19;9310;-61
2023/12/28 09:51:58;;;;;;;;;;;15.10;71.70;;;;;;7324431;19;9251;-60
2023/12/28 09:54:27;;;;;;;;;;;15.20;71.20;;;;;;7324630;19;9496;-60
2023/12/28 09:57:00;;;;;;;;;;;15.30;71.20;;;;;;7325240;19;9214;-61
2023/12/28 09:59:30;;;;;;;;;;;15.30;71.10;;;;;;7324611;19;9182;-61
2023/12/28 10:02:01;;;;;;;;;;;15.40;71.10;;;;;;7324676;19;9573;-60
2023/12/28 10:04:31;;;;;;;;;;;15.50;71.00;;;;;;7323979;19;9235;-61
2023/12/28 10:07:00;;;;;;;;;;;15.50;70.90;;;;;;7324793;19;9226;-61
2023/12/28 10:09:30;;;;;;;;;;;15.60;70.80;;;;;;7323854;19;9301;-61
2023/12/28 10:12:03;;;;;;;;;;;15.70;70.70;;;;;;7324679;19;9236;-61
2023/12/28 10:14:32;;;;;;;;;;;15.70;70.60;;;;;;7323896;19;9460;-60
2023/12/28 10:17:21;;;;;;;;;;;15.80;70.50;;;;;;7322270;19;9382;-61
2023/12/28 10:19:50;;;;;;;;;;;15.80;70.40;;;;;;7323940;19;9004;-60
2023/12/28 10:22:19;;;;;;;;;;;15.80;70.40;;;;;;7323612;19;9542;-61
2023/12/28 10:24:49;;;;;;;;;;;15.80;70.40;;;;;;7324168;19;9431;-61
2023/12/28 10:27:20;;;;;;;;;;;15.80;70.40;;;;;;7323991;19;9425;-61
2023/12/28 10:30:11;;;;;;;;;;;15.80;70.50;;;;;;7322232;19;10498;-61
2023/12/28 10:32:43;;;;;;;;;;;15.80;70.40;;;;;;7323227;19;9427;-60
2023/12/28 10:35:32;;;;;;;;;;;15.80;70.60;;;;;;7322222;19;9515;-61
2023/12/28 10:38:03;;;;;;;;;;;15.80;70.70;;;;;;7324017;19;9531;-61
2023/12/28 10:40:36;;;;;;;;;;;15.80;70.60;;;;;;7323268;19;9226;-61
2023/12/28 10:43:10;;;;;;;;;;;15.80;70.70;;;;;;7324532;19;9142;-61
2023/12/28 10:45:43;;;;;;;;;;;15.80;70.80;;;;;;7322942;19;9589;-61
2023/12/28 10:48:14;;;;;;;;;;;15.70;70.80;;;;;;7323878;19;9406;-61
2023/12/28 10:50:49;;;;;;;;;;;15.70;70.90;;;;;;7321270;19;9504;-61
2023/12/28 10:53:40;;;;;;;;;;;15.70;70.90;;;;;;7322666;19;9617;-61
2023/12/28 10:56:24;;;;;;;;;;;15.70;71.10;;;;;;7323507;19;9235;-60
2023/12/28 10:59:08;;;;;;;;;;;15.70;71.10;;;;;;7323197;19;9392;-60
2023/12/28 11:01:42;;;;;;;;;;;15.60;71.10;;;;;;7322056;19;9653;-60
2023/12/28 11:04:20;;;;;;;;;;;15.60;71.10;;;;;;7322577;19;9222;-61
2023/12/28 11:06:52;;;;;;;;;;;15.50;71.20;;;;;;7323311;19;9253;-61
2023/12/28 11:09:24;;;;;;;;;;;15.50;71.30;;;;;;7322649;19;10569;-60
2023/12/28 11:11:58;;;;;;;;;;;15.50;71.30;;;;;;7322768;19;9407;-60
2023/12/28 11:14:31;;;;;;;;;;;15.50;71.40;;;;;;7322126;19;9318;-60
2023/12/28 11:17:02;;;;;;;;;;;15.50;71.40;;;;;;7322681;19;9433;-60
2023/12/28 11:19:32;;;;;;;;;;;15.50;71.50;;;;;;7321986;19;9540;-61
2023/12/28 11:22:04;;;;;;;;;;;15.40;71.50;;;;;;7322545;19;9234;-63
2023/12/28 11:24:36;;;;;;;;;;;15.40;71.60;;;;;;7321630;19;9155;-60
2023/12/28 11:27:06;;;;;;;;;;;15.40;71.60;;;;;;7322799;19;9433;-60
2023/12/28 11:29:38;;;;;;;;;;;15.40;71.70;;;;;;7322137;19;9296;-61
2023/12/28 11:32:08;;;;;;;;;;;15.40;71.70;;;;;;7321570;19;9299;-61
2023/12/28 11:34:37;;;;;;;;;;;15.30;71.70;;;;;;7322433;19;9277;-60
2023/12/28 11:37:10;;;;;;;;;;;15.30;71.70;;;;;;7321612;19;9248;-61
2023/12/28 11:39:40;;;;;;;;;;;15.30;71.80;;;;;;7321436;19;9445;-60
2023/12/28 11:42:11;;;;;;;;;;;15.30;71.80;;;;;;7320992;19;9442;-61
2023/12/28 11:44:44;;;;;;;;;;;15.30;71.90;;;;;;7321294;19;9526;-61
2023/12/28 11:47:16;;;;;;;;;;;15.30;71.90;;;;;;7321240;19;9226;-61
2023/12/28 11:49:48;;;;;;;;;;;15.30;72.00;;;;;;7321151;19;9165;-60
2023/12/28 11:52:26;;;;;;;;;;;15.30;72.30;;;;;;7321575;19;9414;-60
2023/12/28 11:54:56;;;;;;;;;;;15.30;72.00;;;;;;7320892;19;9757;-61
2023/12/28 11:57:26;;;;;;;;;;;15.20;72.00;;;;;;7320049;19;9216;-59
2023/12/28 12:00:01;;;;;;;;;;;15.20;72.00;;;;;;7319435;19;9203;-59
2023/12/28 12:02:30;;;;;;;;;;;15.20;72.00;;;;;;7322626;19;9336;-59
2023/12/28 12:05:02;;;;;;;;;;;15.20;72.10;;;;;;7326734;19;9474;-59
2023/12/28 12:07:32;;;;;;;;;;;15.20;72.10;;;;;;7327765;19;9485;-59
2023/12/28 12:10:02;;;;;;;;;;;15.20;72.10;;;;;;7326586;19;9316;-59
2023/12/28 12:12:31;;;;;;;;;;;15.20;72.20;;;;;;7327421;19;9405;-59
2023/12/28 12:15:03;;;;;;;;;;;15.10;72.20;;;;;;7326612;19;9404;-61
2023/12/28 12:17:32;;;;;;;;;;;15.10;72.20;;;;;;7326321;19;9348;-59
2023/12/28 12:20:26;;;;;;;;;;;15.10;72.20;;;;;;7325221;19;9282;-59
2023/12/28 12:22:55;;;;;;;;;;;15.10;72.20;;;;;;7327056;19;10663;-60
2023/12/28 12:25:24;;;;;;;;;;;15.10;72.40;;;;;;7326901;19;9470;-59
2023/12/28 12:27:53;;;;;;;;;;;15.00;72.20;;;;;;7321511;19;9469;-63
2023/12/28 12:30:25;;;;;;;;;;;15.10;72.50;;;;;;7324673;19;9353;-62
2023/12/28 12:32:54;;;;;;;;;;;15.10;72.60;;;;;;7273126;19;10647;-66
2023/12/28 12:35:23;;;;;;;;;;;15.10;72.60;;;;;;7310037;19;9428;-62
2023/12/28 12:37:53;;;;;;;;;;;15.10;72.70;;;;;;7314439;19;9310;-60
2023/12/28 12:40:23;;;;;;;;;;;15.10;72.80;;;;;;7314790;19;9475;-62
2023/12/28 12:42:56;;;;;;;;;;;15.10;72.80;;;;;;7321071;19;9355;-62
2023/12/28 12:45:28;;;;;;;;;;;15.10;72.70;;;;;;7312339;19;9514;-62
2023/12/28 12:47:57;;;;;;;;;;;15.20;72.70;;;;;;7320395;19;9255;-60
2023/12/28 12:50:28;;;;;;;;;;;15.30;72.60;;;;;;7318678;19;9307;-61
2023/12/28 12:52:57;;;;;;;;;;;15.30;72.30;;;;;;7318519;19;9541;-64
2023/12/28 12:55:26;;;;;;;;;;;15.40;72.10;;;;;;7320184;19;9379;-63
2023/12/28 12:57:56;;;;;;;;;;;15.40;72.00;;;;;;7316883;19;9650;-61
2023/12/28 13:00:28;;;;;;;;;;;15.50;71.90;;;;;;7319616;19;9455;-64
2023/12/28 13:02:57;;;;;;;;;;;15.60;71.80;;;;;;7316319;19;9492;-62
2023/12/28 13:05:28;;;;;;;;;;;15.70;71.70;;;;;;7319324;19;10386;-65
2023/12/28 13:07:57;;;;;;;;;;;15.70;71.60;;;;;;7318682;19;9212;-63
2023/12/28 13:10:26;;;;;;;;;;;15.80;71.50;;;;;;7319849;19;9543;-62
2023/12/28 13:12:55;;;;;;;;;;;15.80;72.00;;;;;;7308527;19;9585;-63
2023/12/28 13:15:46;;;;;;;;;;;16.00;71.30;;;;;;7313459;19;9618;-61
2023/12/28 13:18:16;;;;;;;;;;;16.00;71.10;;;;;;7315403;19;9311;-60
2023/12/28 13:20:45;;;;;;;;;;;16.10;71.10;;;;;;7317216;19;9618;-58
2023/12/28 13:23:34;;;;;;;;;;;16.20;70.90;;;;;;7266716;19;78107;-60
2023/12/28 13:26:03;;;;;;;;;;;16.30;70.70;;;;;;7318123;19;10441;-59
2023/12/28 13:28:32;;;;;;;;;;;16.30;70.70;;;;;;7319186;19;9466;-61
2023/12/28 13:31:04;;;;;;;;;;;16.40;70.60;;;;;;7314601;19;10823;-60
2023/12/28 13:33:33;;;;;;;;;;;16.50;70.50;;;;;;7319462;19;9431;-61
2023/12/28 13:36:02;;;;;;;;;;;16.50;70.30;;;;;;7315313;19;9612;-60
2023/12/28 13:38:31;;;;;;;;;;;16.60;70.30;;;;;;7319512;19;10909;-60
2023/12/28 13:41:00;;;;;;;;;;;16.60;70.20;;;;;;7318701;19;9587;-60
2023/12/28 13:43:29;;;;;;;;;;;16.70;70.10;;;;;;7317186;19;9467;-59
2023/12/28 13:45:58;;;;;;;;;;;16.80;70.20;;;;;;7316489;19;9644;-59
2023/12/28 13:48:29;;;;;;;;;;;16.80;70.00;;;;;;7319362;19;9468;-60
2023/12/28 13:50:59;;;;;;;;;;;16.80;70.00;;;;;;7318040;19;9311;-61
2023/12/28 13:53:28;;;;;;;;;;;16.90;69.90;;;;;;7284787;19;9545;-61
2023/12/28 13:55:57;;;;;;;;;;;17.00;69.90;;;;;;7313069;19;9199;-61
2023/12/28 13:58:26;;;;;;;;;;;17.00;69.90;;;;;;7317364;19;9282;-61
2023/12/28 14:00:55;;;;;;;;;;;17.00;69.80;;;;;;7318700;19;9361;-61
2023/12/28 14:03:48;;;;;;;;;;;17.10;70.00;;;;;;7307566;19;9509;-62
2023/12/28 14:06:17;;;;;;;;;;;17.10;69.90;;;;;;7318743;19;9501;-62
2023/12/28 14:08:46;;;;;;;;;;;17.10;69.90;;;;;;7317800;19;9442;-62
2023/12/28 14:11:15;;;;;;;;;;;17.20;69.80;;;;;;7317771;19;9254;-62
2023/12/28 14:13:44;;;;;;;;;;;17.20;69.80;;;;;;7318043;19;9521;-61
2023/12/28 14:16:13;;;;;;;;;;;17.20;69.90;;;;;;7317359;19;9287;-62
2023/12/28 14:18:42;;;;;;;;;;;17.30;69.80;;;;;;7317423;19;9433;-61
2023/12/28 14:21:15;;;;;;;;;;;17.30;69.80;;;;;;7317461;19;9179;-62
2023/12/28 14:23:44;;;;;;;;;;;17.40;69.90;;;;;;7318261;19;11322;-62
2023/12/28 14:26:16;;;;;;;;;;;17.40;69.90;;;;;;7313973;19;9448;-62
2023/12/28 14:28:46;;;;;;;;;;;17.40;70.20;;;;;;7318926;19;9262;-62
2023/12/28 14:31:16;;;;;;;;;;;17.40;69.70;;;;;;7313978;19;9461;-62
2023/12/28 14:33:46;;;;;;;;;;;17.50;69.80;;;;;;7317992;19;10931;-62
2023/12/28 14:36:31;;;;;;;;;;;17.50;69.80;;;;;;7317321;19;9314;-62
2023/12/28 14:39:00;;;;;;;;;;;17.50;69.70;;;;;;7317808;19;9481;-61
2023/12/28 14:41:30;;;;;;;;;;;17.50;70.30;;;;;;7318555;19;9525;-62
2023/12/28 14:43:59;;;;;;;;;;;17.60;69.70;;;;;;7315690;19;9224;-62
2023/12/28 14:46:29;;;;;;;;;;;17.60;69.80;;;;;;7316331;19;9268;-62
2023/12/28 14:49:00;;;;;;;;;;;17.60;69.70;;;;;;7316934;19;9471;-61
2023/12/28 14:51:33;;;;;;;;;;;17.70;70.00;;;;;;7317358;19;10155;-62